Time;durP1;ratioP1;P1;durP2;ratioP2;P2;SDS_P1;SDS_P2;PMS_P1;PMS_P2;Temp;Humidity;BMP_temperature;BMP_pressure;BME280_temperature;BME280_humidity;BME280_pressure;Samples;Min_cycle;Max_cycle;Signal;HPM_P1;HPM_P2
2022/10/19 00:00:46;;;;;;;7.60;5.55;;;;;;;;;;5020320;28;20021;-73
2022/10/19 00:03:14;;;;;;;13.10;5.97;;;;;;;;;;5020206;28;20037;-73
2022/10/19 00:05:43;;;;;;;9.52;5.05;;;;;;;;;;5023523;28;20041;-74
2022/10/19 00:08:08;;;;;;;9.43;5.47;;;;;;;;;;5022507;28;20034;-74
2022/10/19 00:10:38;;;;;;;6.95;4.90;;;;;;;;;;5033910;28;20595;-74
2022/10/19 00:13:03;;;;;;;6.85;4.63;;;;;;;;;;5030464;28;20037;-74
2022/10/19 00:15:29;;;;;;;7.13;4.30;;;;;;;;;;5023383;28;20034;-74
2022/10/19 00:17:57;;;;;;;6.00;3.78;;;;;;;;;;5040441;28;20032;-73
2022/10/19 00:20:23;;;;;;;8.15;4.95;;;;;;;;;;5031950;28;20025;-72
2022/10/19 00:22:51;;;;;;;12.02;5.43;;;;;;;;;;5002054;28;20034;-73
2022/10/19 00:25:17;;;;;;;7.07;4.85;;;;;;;;;;5030425;28;20030;-72
2022/10/19 00:27:45;;;;;;;7.60;4.30;;;;;;;;;;5024914;28;20030;-72
2022/10/19 00:30:15;;;;;;;6.75;4.80;;;;;;;;;;5029945;28;20046;-73
2022/10/19 00:32:43;;;;;;;6.97;4.53;;;;;;;;;;5023934;28;20048;-73
2022/10/19 00:35:11;;;;;;;6.03;4.35;;;;;;;;;;5002692;28;20025;-73
2022/10/19 00:37:37;;;;;;;4.78;3.40;;;;;;;;;;5021820;28;20026;-73
2022/10/19 00:40:03;;;;;;;6.47;4.30;;;;;;;;;;5023445;28;20017;-72
2022/10/19 00:42:31;;;;;;;6.03;4.28;;;;;;;;;;5023925;28;20025;-73
2022/10/19 00:45:01;;;;;;;9.05;4.15;;;;;;;;;;5023620;28;20021;-73
2022/10/19 00:47:29;;;;;;;7.97;4.07;;;;;;;;;;5027409;28;20075;-73
2022/10/19 00:49:58;;;;;;;7.47;3.90;;;;;;;;;;5024782;28;20502;-73
2022/10/19 00:52:24;;;;;;;13.05;5.57;;;;;;;;;;5014916;28;20053;-73
2022/10/19 00:54:52;;;;;;;8.25;4.70;;;;;;;;;;5022239;28;20030;-74
2022/10/19 00:57:18;;;;;;;25.58;7.00;;;;;;;;;;5023384;28;20033;-73
2022/10/19 00:59:46;;;;;;;40.65;6.90;;;;;;;;;;5019063;28;20037;-73
2022/10/19 01:02:13;;;;;;;35.78;5.97;;;;;;;;;;5026229;28;20025;-73
2022/10/19 01:04:43;;;;;;;22.23;6.35;;;;;;;;;;5023579;28;20021;-72
2022/10/19 01:07:16;;;;;;;65.78;8.77;;;;;;;;;;5020134;28;20028;-73
2022/10/19 01:09:42;;;;;;;40.33;7.63;;;;;;;;;;5021230;28;20033;-73
2022/10/19 01:12:33;;;;;;;91.75;10.80;;;;;;;;;;5024131;28;20025;-73
2022/10/19 01:15:09;;;;;;;19.80;5.55;;;;;;;;;;5013273;28;20045;-73
2022/10/19 01:17:58;;;;;;;38.45;6.93;;;;;;;;;;5008184;28;20033;-73
2022/10/19 01:20:42;;;;;;;31.65;6.90;;;;;;;;;;4991228;28;20040;-73
2022/10/19 01:23:09;;;;;;;8.48;4.28;;;;;;;;;;5025116;28;20045;-73
2022/10/19 01:25:43;;;;;;;27.05;6.25;;;;;;;;;;5020243;28;20025;-73
2022/10/19 01:28:18;;;;;;;10.35;4.22;;;;;;;;;;5025799;28;20037;-72
2022/10/19 01:30:46;;;;;;;14.93;4.78;;;;;;;;;;5018482;28;20034;-73
2022/10/19 01:33:37;;;;;;;38.65;6.90;;;;;;;;;;5016362;28;20043;-73
2022/10/19 01:36:18;;;;;;;25.27;5.85;;;;;;;;;;5017493;28;20037;-73
2022/10/19 01:38:53;;;;;;;11.27;4.32;;;;;;;;;;5023488;28;20056;-72
2022/10/19 01:41:21;;;;;;;14.75;4.50;;;;;;;;;;5014875;28;20037;-72
2022/10/19 01:43:53;;;;;;;14.25;4.60;;;;;;;;;;5023283;28;20025;-73
2022/10/19 01:46:28;;;;;;;19.75;5.13;;;;;;;;;;5025419;28;20040;-72
2022/10/19 01:49:22;;;;;;;7.05;3.65;;;;;;;;;;5018371;28;20110;-73
2022/10/19 01:51:50;;;;;;;13.23;4.38;;;;;;;;;;5022473;28;20510;-73
2022/10/19 01:54:18;;;;;;;38.13;5.50;;;;;;;;;;5019841;28;20036;-74
2022/10/19 01:56:47;;;;;;;27.38;4.72;;;;;;;;;;5024338;28;20030;-72
2022/10/19 01:59:14;;;;;;;39.03;5.70;;;;;;;;;;5022696;28;20033;-73
2022/10/19 02:01:47;;;;;;;30.90;5.40;;;;;;;;;;5016955;28;20029;-73
2022/10/19 02:04:15;;;;;;;29.40;4.78;;;;;;;;;;5019431;28;20030;-73
2022/10/19 02:06:42;;;;;;;9.52;4.00;;;;;;;;;;5001992;28;20038;-73
2022/10/19 02:09:07;;;;;;;9.18;3.85;;;;;;;;;;5021996;28;20022;-73
2022/10/19 02:11:36;;;;;;;7.15;2.88;;;;;;;;;;5020808;28;20029;-72
2022/10/19 02:14:08;;;;;;;3.80;3.42;;;;;;;;;;5023447;28;20029;-72
2022/10/19 02:16:39;;;;;;;4.20;3.17;;;;;;;;;;5022762;28;20056;-73
2022/10/19 02:19:07;;;;;;;7.30;3.67;;;;;;;;;;5022514;28;20379;-72
2022/10/19 02:21:35;;;;;;;5.78;2.83;;;;;;;;;;5025462;28;20034;-72
2022/10/19 02:24:06;;;;;;;5.50;2.75;;;;;;;;;;5037475;28;20033;-73
2022/10/19 02:26:32;;;;;;;5.68;3.13;;;;;;;;;;5018836;28;20038;-72
2022/10/19 02:28:58;;;;;;;4.72;2.90;;;;;;;;;;5022002;28;20040;-72
2022/10/19 02:31:24;;;;;;;5.50;3.55;;;;;;;;;;5024632;28;20034;-72
2022/10/19 02:33:50;;;;;;;9.40;3.55;;;;;;;;;;5009171;28;20025;-73
2022/10/19 02:36:16;;;;;;;13.13;4.32;;;;;;;;;;5027902;28;20026;-73
2022/10/19 02:38:44;;;;;;;6.85;3.38;;;;;;;;;;5023605;28;20026;-73
2022/10/19 02:41:14;;;;;;;7.63;3.65;;;;;;;;;;5027446;28;20053;-73
2022/10/19 02:43:46;;;;;;;6.60;3.50;;;;;;;;;;5026935;28;20029;-72
2022/10/19 02:46:15;;;;;;;16.52;4.28;;;;;;;;;;5020573;28;20041;-73
2022/10/19 02:48:41;;;;;;;5.35;2.72;;;;;;;;;;5026076;28;20379;-73
2022/10/19 02:51:25;;;;;;;9.15;3.72;;;;;;;;;;5024070;28;20400;-73
2022/10/19 02:53:51;;;;;;;35.20;4.28;;;;;;;;;;5024865;28;20025;-73
2022/10/19 02:56:17;;;;;;;86.35;10.25;;;;;;;;;;5022223;28;20476;-73
2022/10/19 02:58:42;;;;;;;59.67;7.80;;;;;;;;;;5025941;28;20064;-73
2022/10/19 03:01:16;;;;;;;11.77;6.15;;;;;;;;;;5028117;28;20470;-73
2022/10/19 03:03:46;;;;;;;24.42;3.85;;;;;;;;;;5019758;28;20040;-73
2022/10/19 03:06:16;;;;;;;13.18;4.00;;;;;;;;;;5023986;28;20026;-72
2022/10/19 03:08:42;;;;;;;10.65;3.85;;;;;;;;;;5024678;28;20026;-73
2022/10/19 03:11:11;;;;;;;5.95;3.83;;;;;;;;;;5030541;28;20033;-73
2022/10/19 03:13:39;;;;;;;19.60;7.32;;;;;;;;;;5026223;28;20037;-73
2022/10/19 03:16:06;;;;;;;21.27;5.45;;;;;;;;;;5027250;28;20392;-73
2022/10/19 03:18:32;;;;;;;10.20;4.53;;;;;;;;;;5025970;28;20045;-73
2022/10/19 03:21:05;;;;;;;13.05;4.40;;;;;;;;;;5026968;28;20446;-73
2022/10/19 03:23:34;;;;;;;5.97;3.85;;;;;;;;;;5027649;28;20041;-72
2022/10/19 03:26:00;;;;;;;9.13;4.00;;;;;;;;;;5029479;28;20036;-73
2022/10/19 03:28:28;;;;;;;6.68;3.58;;;;;;;;;;5028043;28;20411;-72
2022/10/19 03:30:56;;;;;;;5.38;3.50;;;;;;;;;;5026737;28;20511;-71
2022/10/19 03:33:23;;;;;;;3.53;3.22;;;;;;;;;;5032154;28;20117;-72
2022/10/19 03:35:49;;;;;;;5.72;3.10;;;;;;;;;;4994083;28;20241;-72
2022/10/19 03:38:14;;;;;;;5.55;3.28;;;;;;;;;;5026863;28;20100;-73
2022/10/19 03:40:40;;;;;;;5.70;3.10;;;;;;;;;;5034638;28;20045;-73
2022/10/19 03:43:11;;;;;;;3.28;2.97;;;;;;;;;;5028347;28;20032;-73
2022/10/19 03:45:37;;;;;;;7.72;4.20;;;;;;;;;;5018278;28;20487;-73
2022/10/19 03:48:05;;;;;;;11.75;4.07;;;;;;;;;;5022009;28;20037;-73
2022/10/19 03:50:35;;;;;;;28.38;7.95;;;;;;;;;;5019737;28;20037;-75
2022/10/19 03:53:06;;;;;;;17.08;4.57;;;;;;;;;;5019428;28;20041;-72
2022/10/19 03:55:32;;;;;;;13.90;4.97;;;;;;;;;;5025073;28;20030;-72
2022/10/19 03:58:02;;;;;;;9.27;4.85;;;;;;;;;;5026219;28;20040;-72
2022/10/19 04:00:28;;;;;;;7.85;3.85;;;;;;;;;;5021683;28;20040;-73
2022/10/19 04:02:58;;;;;;;6.85;3.45;;;;;;;;;;5024859;28;20022;-72
2022/10/19 04:05:24;;;;;;;4.88;3.75;;;;;;;;;;5020458;28;20037;-73
2022/10/19 04:07:54;;;;;;;4.50;3.55;;;;;;;;;;5025492;28;20030;-72
2022/10/19 04:10:23;;;;;;;5.55;3.60;;;;;;;;;;5025206;28;20037;-73
2022/10/19 04:12:53;;;;;;;7.28;3.97;;;;;;;;;;5038936;28;20491;-73
2022/10/19 04:15:22;;;;;;;4.45;3.38;;;;;;;;;;5022016;28;20522;-73
2022/10/19 04:17:48;;;;;;;6.53;4.22;;;;;;;;;;5025927;28;20025;-73
2022/10/19 04:20:14;;;;;;;5.40;3.60;;;;;;;;;;5022113;28;20060;-72
2022/10/19 04:22:42;;;;;;;4.97;2.95;;;;;;;;;;5028327;28;20033;-74
2022/10/19 04:25:12;;;;;;;5.68;3.42;;;;;;;;;;5030616;28;20026;-72
2022/10/19 04:27:42;;;;;;;3.50;2.65;;;;;;;;;;5024510;28;20026;-73
2022/10/19 04:30:08;;;;;;;5.72;3.45;;;;;;;;;;5030528;28;20040;-72
2022/10/19 04:32:39;;;;;;;4.70;3.28;;;;;;;;;;5030324;28;20369;-73
2022/10/19 04:35:05;;;;;;;8.00;3.45;;;;;;;;;;5024789;28;20030;-73
2022/10/19 04:37:33;;;;;;;9.95;3.85;;;;;;;;;;5031010;28;20044;-72
2022/10/19 04:39:59;;;;;;;3.47;2.30;;;;;;;;;;5016993;28;20025;-73
2022/10/19 04:42:25;;;;;;;4.15;3.55;;;;;;;;;;5012955;28;20118;-73
2022/10/19 04:44:51;;;;;;;4.65;3.08;;;;;;;;;;5015253;28;20041;-74
2022/10/19 04:47:17;;;;;;;3.33;2.90;;;;;;;;;;5030603;28;20064;-73
2022/10/19 04:49:48;;;;;;;5.47;3.22;;;;;;;;;;5060102;22;20036;-82
2022/10/19 04:52:14;;;;;;;2.70;2.40;;;;;;;;;;5052297;28;20040;-82
2022/10/19 04:54:42;;;;;;;11.18;3.15;;;;;;;;;;5061421;28;20041;-81
2022/10/19 04:57:10;;;;;;;9.98;4.53;;;;;;;;;;5063125;28;20116;-81
2022/10/19 04:59:39;;;;;;;5.28;2.67;;;;;;;;;;5045201;28;20025;-81
2022/10/19 05:02:07;;;;;;;3.17;2.67;;;;;;;;;;5039489;28;20044;-81
2022/10/19 05:04:32;;;;;;;5.90;2.92;;;;;;;;;;5059013;28;20037;-80
2022/10/19 05:07:01;;;;;;;3.28;2.65;;;;;;;;;;5032100;28;20033;-80
2022/10/19 05:09:31;;;;;;;9.55;3.10;;;;;;;;;;5044573;28;20044;-81
2022/10/19 05:11:57;;;;;;;8.23;2.92;;;;;;;;;;5044034;28;20033;-81
2022/10/19 05:14:25;;;;;;;3.92;3.30;;;;;;;;;;5031907;28;20075;-81
2022/10/19 05:16:56;;;;;;;4.85;2.95;;;;;;;;;;5031948;28;20396;-81
2022/10/19 05:19:24;;;;;;;4.70;2.83;;;;;;;;;;5039416;28;20039;-82
2022/10/19 05:21:52;;;;;;;6.18;2.13;;;;;;;;;;5058169;28;20383;-81
2022/10/19 05:24:20;;;;;;;6.93;3.45;;;;;;;;;;5051896;28;20036;-80
2022/10/19 05:26:46;;;;;;;5.72;2.80;;;;;;;;;;5051824;28;20108;-81
2022/10/19 05:29:12;;;;;;;5.85;3.13;;;;;;;;;;5049721;28;20529;-80
2022/10/19 05:31:38;;;;;;;5.97;2.70;;;;;;;;;;5060355;28;20025;-80
2022/10/19 05:34:04;;;;;;;6.38;3.65;;;;;;;;;;5052781;28;20029;-81
2022/10/19 05:36:36;;;;;;;4.53;3.05;;;;;;;;;;5050147;28;20083;-80
2022/10/19 05:39:03;;;;;;;4.22;3.28;;;;;;;;;;5050298;28;20037;-81
2022/10/19 05:41:32;;;;;;;7.45;4.07;;;;;;;;;;5046823;28;20386;-80
2022/10/19 05:44:02;;;;;;;4.30;3.55;;;;;;;;;;5051724;28;20029;-81
2022/10/19 05:46:31;;;;;;;7.68;4.32;;;;;;;;;;5045701;28;20025;-80
2022/10/19 05:48:57;;;;;;;10.02;6.30;;;;;;;;;;5044055;28;20383;-81
2022/10/19 05:51:27;;;;;;;13.82;7.72;;;;;;;;;;5043519;28;20040;-81
2022/10/19 05:53:55;;;;;;;11.18;7.88;;;;;;;;;;5066712;28;20398;-81
2022/10/19 05:56:24;;;;;;;10.40;6.93;;;;;;;;;;5049892;28;20502;-81
2022/10/19 05:58:53;;;;;;;9.48;5.63;;;;;;;;;;5031866;28;20045;-81
2022/10/19 06:01:21;;;;;;;13.30;6.88;;;;;;;;;;5043521;28;20047;-80
2022/10/19 06:03:50;;;;;;;8.27;6.47;;;;;;;;;;5050438;28;20108;-80
2022/10/19 06:06:16;;;;;;;7.47;6.80;;;;;;;;;;5054056;28;20029;-79
2022/10/19 06:08:42;;;;;;;10.73;6.35;;;;;;;;;;5049766;28;20039;-80
2022/10/19 06:11:08;;;;;;;7.97;4.88;;;;;;;;;;5068306;28;20430;-80
2022/10/19 06:13:36;;;;;;;9.13;5.35;;;;;;;;;;5075127;28;20036;-80
2022/10/19 06:16:03;;;;;;;12.00;6.18;;;;;;;;;;5070795;28;20032;-80
2022/10/19 06:18:31;;;;;;;7.13;4.55;;;;;;;;;;5054618;28;20032;-80
2022/10/19 06:21:05;;;;;;;6.30;5.07;;;;;;;;;;5035214;28;20049;-81
2022/10/19 06:23:34;;;;;;;7.72;4.15;;;;;;;;;;5048242;28;20036;-79
2022/10/19 06:26:06;;;;;;;8.10;5.20;;;;;;;;;;5055082;28;20036;-80
2022/10/19 06:28:32;;;;;;;13.43;7.93;;;;;;;;;;5043718;28;20514;-80
2022/10/19 06:31:00;;;;;;;11.23;7.68;;;;;;;;;;5020627;28;20033;-80
2022/10/19 06:33:26;;;;;;;10.65;7.10;;;;;;;;;;5054994;28;20029;-78
2022/10/19 06:35:54;;;;;;;4.60;4.13;;;;;;;;;;5053481;28;20033;-80
2022/10/19 06:38:20;;;;;;;5.80;4.50;;;;;;;;;;5058488;28;20031;-80
2022/10/19 06:40:49;;;;;;;9.73;5.25;;;;;;;;;;5063573;28;20028;-80
2022/10/19 06:43:19;;;;;;;7.18;4.63;;;;;;;;;;5073628;28;20025;-80
2022/10/19 06:45:47;;;;;;;8.85;4.70;;;;;;;;;;5073504;28;20386;-81
2022/10/19 06:48:16;;;;;;;6.43;4.15;;;;;;;;;;5069551;28;20036;-80
2022/10/19 06:50:44;;;;;;;8.43;5.28;;;;;;;;;;5049367;28;20038;-81
2022/10/19 06:53:13;;;;;;;5.82;3.90;;;;;;;;;;5034876;28;20041;-81
2022/10/19 06:55:43;;;;;;;8.98;5.18;;;;;;;;;;5034454;28;20434;-81
2022/10/19 06:58:11;;;;;;;10.38;3.47;;;;;;;;;;5047242;28;20490;-81
2022/10/19 07:00:37;;;;;;;4.65;3.85;;;;;;;;;;5061055;28;20041;-82
2022/10/19 07:03:03;;;;;;;5.47;3.08;;;;;;;;;;5074294;28;20036;-81
2022/10/19 07:05:29;;;;;;;5.35;2.83;;;;;;;;;;5074257;28;20021;-79
2022/10/19 07:07:56;;;;;;;5.25;3.92;;;;;;;;;;5074274;28;20402;-80
2022/10/19 07:10:26;;;;;;;7.13;3.72;;;;;;;;;;5062585;28;20032;-80
2022/10/19 07:12:54;;;;;;;6.88;3.80;;;;;;;;;;5053143;28;20499;-80
2022/10/19 07:15:20;;;;;;;4.70;2.90;;;;;;;;;;5045534;28;20037;-81
2022/10/19 07:17:46;;;;;;;5.78;3.50;;;;;;;;;;5050209;28;20501;-81
2022/10/19 07:20:14;;;;;;;6.47;4.18;;;;;;;;;;5057969;28;20028;-81
2022/10/19 07:22:40;;;;;;;5.82;3.75;;;;;;;;;;5064611;28;20496;-81
2022/10/19 07:25:08;;;;;;;3.72;3.05;;;;;;;;;;5073654;28;20043;-81
2022/10/19 07:27:38;;;;;;;4.70;3.75;;;;;;;;;;5059450;28;20025;-79
2022/10/19 07:30:07;;;;;;;7.75;4.00;;;;;;;;;;5052459;28;20490;-79
2022/10/19 07:32:33;;;;;;;8.93;3.47;;;;;;;;;;5062156;28;20045;-80
2022/10/19 07:35:01;;;;;;;10.30;4.82;;;;;;;;;;5032485;28;20037;-81
2022/10/19 07:37:27;;;;;;;5.97;4.05;;;;;;;;;;5037326;28;20025;-81
2022/10/19 07:39:52;;;;;;;5.68;4.25;;;;;;;;;;5053386;28;20091;-80
2022/10/19 07:42:25;;;;;;;5.47;3.42;;;;;;;;;;5041998;28;20044;-80
2022/10/19 07:44:51;;;;;;;7.45;2.95;;;;;;;;;;5048852;28;20029;-81
2022/10/19 07:47:17;;;;;;;8.32;5.05;;;;;;;;;;5051736;28;20032;-80
2022/10/19 07:49:43;;;;;;;4.88;3.80;;;;;;;;;;5066159;28;20040;-80
2022/10/19 07:52:12;;;;;;;4.10;3.17;;;;;;;;;;5056728;28;20123;-81
2022/10/19 07:54:37;;;;;;;4.68;3.22;;;;;;;;;;5052977;28;20040;-81
2022/10/19 07:57:06;;;;;;;6.03;3.15;;;;;;;;;;5047773;28;20032;-81
2022/10/19 07:59:32;;;;;;;6.18;3.38;;;;;;;;;;5056116;28;20044;-81
2022/10/19 08:02:01;;;;;;;5.35;3.50;;;;;;;;;;5054890;28;20509;-80
2022/10/19 08:04:31;;;;;;;6.95;5.30;;;;;;;;;;5044598;28;20030;-81
2022/10/19 08:06:57;;;;;;;6.72;4.97;;;;;;;;;;5041331;28;20033;-80
2022/10/19 08:09:27;;;;;;;7.03;4.40;;;;;;;;;;5032844;28;20033;-81
2022/10/19 08:11:56;;;;;;;9.55;7.13;;;;;;;;;;5041926;28;20040;-81
2022/10/19 08:14:21;;;;;;;8.15;6.47;;;;;;;;;;5050580;28;20037;-81
2022/10/19 08:16:50;;;;;;;7.78;4.70;;;;;;;;;;5057558;28;20033;-80
2022/10/19 08:19:16;;;;;;;6.38;4.85;;;;;;;;;;5046307;28;20056;-81
2022/10/19 08:21:46;;;;;;;6.70;4.53;;;;;;;;;;5044437;28;20022;-80
2022/10/19 08:24:16;;;;;;;8.48;6.85;;;;;;;;;;5044939;28;20040;-80
2022/10/19 08:26:44;;;;;;;8.68;5.10;;;;;;;;;;5048311;28;20028;-81
2022/10/19 08:29:10;;;;;;;9.15;6.10;;;;;;;;;;5054184;28;20121;-81
2022/10/19 08:31:36;;;;;;;5.85;5.00;;;;;;;;;;5051432;28;20025;-81
2022/10/19 08:34:04;;;;;;;7.35;5.55;;;;;;;;;;5051883;28;20031;-81
2022/10/19 08:36:31;;;;;;;9.27;4.68;;;;;;;;;;5050203;28;20036;-80
2022/10/19 08:39:00;;;;;;;9.40;5.30;;;;;;;;;;5049577;28;20523;-81
2022/10/19 08:41:28;;;;;;;8.45;5.57;;;;;;;;;;5065101;28;20032;-80
2022/10/19 08:44:04;;;;;;;8.80;5.80;;;;;;;;;;5049214;28;20037;-80
2022/10/19 08:46:50;;;;;;;6.57;5.78;;;;;;;;;;5044143;28;20392;-81
2022/10/19 08:49:21;;;;;;;6.97;5.28;;;;;;;;;;5047366;28;20028;-83
2022/10/19 08:51:58;;;;;;;7.43;4.38;;;;;;;;;;5045183;28;20033;-81
2022/10/19 08:54:34;;;;;;;8.38;5.53;;;;;;;;;;5044497;28;20395;-80
2022/10/19 08:57:20;;;;;;;7.05;5.22;;;;;;;;;;5043344;28;20025;-80
2022/10/19 09:00:06;;;;;;;9.25;4.47;;;;;;;;;;5051925;28;20045;-80
2022/10/19 09:02:43;;;;;;;8.60;5.55;;;;;;;;;;5046665;28;20032;-81
2022/10/19 09:05:40;;;;;;;6.63;4.57;;;;;;;;;;5051182;28;20036;-81
2022/10/19 09:08:08;;;;;;;4.80;4.35;;;;;;;;;;5036750;28;20052;-82
2022/10/19 09:10:39;;;;;;;4.72;3.72;;;;;;;;;;5048366;28;20029;-80
2022/10/19 09:13:32;;;;;;;4.25;3.85;;;;;;;;;;5050676;28;20017;-82
2022/10/19 09:16:01;;;;;;;6.30;4.50;;;;;;;;;;5060903;28;20025;-82
2022/10/19 09:18:28;;;;;;;6.43;4.82;;;;;;;;;;5055063;28;20032;-81
2022/10/19 09:21:10;;;;;;;7.50;5.63;;;;;;;;;;5055807;28;20029;-82
2022/10/19 09:23:38;;;;;;;4.65;3.78;;;;;;;;;;5049321;28;20474;-82
2022/10/19 09:26:13;;;;;;;4.80;4.13;;;;;;;;;;5049170;28;20032;-80
2022/10/19 09:28:47;;;;;;;5.25;4.07;;;;;;;;;;5049364;28;20482;-80
2022/10/19 09:31:36;;;;;;;4.70;3.33;;;;;;;;;;5056194;28;20037;-82
2022/10/19 09:34:05;;;;;;;7.07;4.25;;;;;;;;;;5060439;28;20358;-82
2022/10/19 09:36:37;;;;;;;8.18;4.72;;;;;;;;;;5050248;28;20060;-80
2022/10/19 09:39:03;;;;;;;5.45;4.90;;;;;;;;;;5038509;28;20034;-81
2022/10/19 09:41:34;;;;;;;6.90;4.38;;;;;;;;;;5043775;28;20029;-81
2022/10/19 09:44:00;;;;;;;5.85;5.15;;;;;;;;;;5059055;28;20036;-81
2022/10/19 09:46:29;;;;;;;5.85;3.97;;;;;;;;;;5050857;28;20025;-80
2022/10/19 09:48:57;;;;;;;8.60;5.50;;;;;;;;;;5053390;28;20043;-81
2022/10/19 09:51:37;;;;;;;6.57;4.82;;;;;;;;;;5056719;28;20032;-81
2022/10/19 09:54:03;;;;;;;6.47;4.55;;;;;;;;;;5030538;28;20392;-80
2022/10/19 09:56:35;;;;;;;7.20;5.30;;;;;;;;;;5040064;28;20033;-81
2022/10/19 09:59:18;;;;;;;5.13;4.63;;;;;;;;;;5060288;28;20040;-81
2022/10/19 10:01:57;;;;;;;6.88;4.80;;;;;;;;;;5046716;28;20029;-81
2022/10/19 10:04:25;;;;;;;5.53;4.68;;;;;;;;;;5044145;28;20513;-81
2022/10/19 10:06:57;;;;;;;4.32;3.80;;;;;;;;;;5046502;28;20029;-81
2022/10/19 10:09:27;;;;;;;4.97;3.38;;;;;;;;;;5057547;28;20126;-80
2022/10/19 10:11:57;;;;;;;7.32;4.20;;;;;;;;;;5064288;28;20040;-81
2022/10/19 10:14:34;;;;;;;7.55;4.50;;;;;;;;;;5043356;28;20048;-80
2022/10/19 10:17:01;;;;;;;5.70;3.58;;;;;;;;;;5063903;28;20025;-80
2022/10/19 10:19:29;;;;;;;6.25;4.20;;;;;;;;;;5026364;28;20029;-80
2022/10/19 10:21:58;;;;;;;5.13;3.60;;;;;;;;;;5021621;28;20037;-81
2022/10/19 10:24:30;;;;;;;4.55;3.42;;;;;;;;;;5037216;28;20307;-78
2022/10/19 10:27:02;;;;;;;5.13;4.25;;;;;;;;;;5074507;28;20130;-80
2022/10/19 10:29:32;;;;;;;6.22;4.05;;;;;;;;;;5037231;28;20033;-80
2022/10/19 10:32:00;;;;;;;6.20;2.65;;;;;;;;;;5025852;28;20039;-80
2022/10/19 10:34:40;;;;;;;4.18;2.83;;;;;;;;;;5038162;28;20084;-80
2022/10/19 10:37:27;;;;;;;4.25;3.33;;;;;;;;;;5040584;28;20025;-80
2022/10/19 10:39:55;;;;;;;5.72;3.22;;;;;;;;;;5048740;28;20420;-81
2022/10/19 10:42:25;;;;;;;4.82;3.40;;;;;;;;;;5054425;28;20024;-80
2022/10/19 10:44:52;;;;;;;4.60;3.63;;;;;;;;;;5023824;28;20024;-80
2022/10/19 10:47:21;;;;;;;3.85;3.08;;;;;;;;;;5043682;28;20040;-80
2022/10/19 10:50:01;;;;;;;5.00;3.28;;;;;;;;;;5050353;22;20492;-74
2022/10/19 10:52:30;;;;;;;4.93;4.38;;;;;;;;;;5014749;28;20033;-74
2022/10/19 10:54:57;;;;;;;6.70;4.22;;;;;;;;;;5028421;28;20021;-73
2022/10/19 10:57:26;;;;;;;4.55;3.42;;;;;;;;;;5032946;28;20037;-73
2022/10/19 11:00:09;;;;;;;4.85;3.17;;;;;;;;;;5027964;28;20033;-74
2022/10/19 11:02:40;;;;;;;3.67;3.38;;;;;;;;;;5023291;28;20037;-74
2022/10/19 11:05:27;;;;;;;5.78;4.05;;;;;;;;;;5033451;28;20037;-74
2022/10/19 11:08:03;;;;;;;4.72;3.55;;;;;;;;;;5028384;28;20026;-74
2022/10/19 11:10:39;;;;;;;6.00;3.17;;;;;;;;;;5029032;28;20387;-74
2022/10/19 11:13:11;;;;;;;4.78;2.85;;;;;;;;;;5026026;28;20040;-74
2022/10/19 11:15:40;;;;;;;5.70;3.33;;;;;;;;;;5025025;28;20029;-74
2022/10/19 11:18:08;;;;;;;3.33;2.85;;;;;;;;;;5023476;28;20034;-74
2022/10/19 11:20:40;;;;;;;4.38;3.42;;;;;;;;;;5019608;28;20025;-74
2022/10/19 11:23:13;;;;;;;4.00;2.90;;;;;;;;;;5028110;28;20045;-75
2022/10/19 11:25:53;;;;;;;3.63;3.15;;;;;;;;;;5030191;28;20034;-74
2022/10/19 11:28:42;;;;;;;3.08;2.78;;;;;;;;;;5027034;28;20487;-75
2022/10/19 11:31:11;;;;;;;3.15;2.60;;;;;;;;;;5023076;28;20030;-74
2022/10/19 11:33:37;;;;;;;2.83;2.42;;;;;;;;;;5018500;28;20029;-73
2022/10/19 11:36:07;;;;;;;3.45;2.78;;;;;;;;;;5025807;28;20029;-73
2022/10/19 11:38:37;;;;;;;2.88;2.58;;;;;;;;;;5027783;28;20037;-73
2022/10/19 11:41:27;;;;;;;2.95;2.08;;;;;;;;;;5021218;28;20502;-73
2022/10/19 11:44:04;;;;;;;4.00;3.15;;;;;;;;;;5026423;28;20028;-73
2022/10/19 11:46:47;;;;;;;4.28;2.58;;;;;;;;;;5022855;28;20036;-73
2022/10/19 11:49:19;;;;;;;4.32;3.25;;;;;;;;;;5021764;28;20034;-74
2022/10/19 11:51:50;;;;;;;5.20;3.05;;;;;;;;;;5023868;28;20034;-73
2022/10/19 11:54:34;;;;;;;4.15;2.85;;;;;;;;;;5026207;28;20037;-73
2022/10/19 11:57:00;;;;;;;3.97;3.15;;;;;;;;;;5023895;28;20030;-73
2022/10/19 11:59:40;;;;;;;6.15;3.70;;;;;;;;;;5025450;28;20041;-73
2022/10/19 12:02:12;;;;;;;4.68;3.25;;;;;;;;;;5025207;28;20048;-73
2022/10/19 12:04:59;;;;;;;3.25;2.65;;;;;;;;;;5009074;28;20400;-73
2022/10/19 12:07:42;;;;;;;4.35;3.70;;;;;;;;;;5028012;28;20040;-73
2022/10/19 12:10:11;;;;;;;4.60;3.55;;;;;;;;;;5019887;28;20041;-72
2022/10/19 12:12:43;;;;;;;3.83;2.78;;;;;;;;;;5025671;28;20495;-73
2022/10/19 12:15:19;;;;;;;6.50;4.07;;;;;;;;;;5027726;28;20025;-73
2022/10/19 12:17:47;;;;;;;3.28;3.00;;;;;;;;;;5022775;28;20029;-75
2022/10/19 12:20:28;;;;;;;4.13;3.08;;;;;;;;;;5021875;28;20141;-73
2022/10/19 12:22:57;;;;;;;4.00;3.60;;;;;;;;;;5008492;28;20495;-75
2022/10/19 12:25:28;;;;;;;5.15;2.60;;;;;;;;;;5025395;28;20044;-74
2022/10/19 12:27:56;;;;;;;4.55;3.20;;;;;;;;;;5028925;28;20021;-74
2022/10/19 12:30:22;;;;;;;5.13;2.55;;;;;;;;;;5026265;28;20025;-74
2022/10/19 12:32:56;;;;;;;6.40;3.20;;;;;;;;;;5026101;28;20483;-72
2022/10/19 12:35:40;;;;;;;3.53;3.20;;;;;;;;;;5025557;28;20392;-74
2022/10/19 12:38:13;;;;;;;2.85;2.55;;;;;;;;;;5024361;28;20037;-74
2022/10/19 12:40:49;;;;;;;3.70;2.95;;;;;;;;;;5027596;28;21718;-74
2022/10/19 12:43:22;;;;;;;3.75;2.60;;;;;;;;;;5017641;28;20034;-74
2022/10/19 12:45:51;;;;;;;4.95;2.60;;;;;;;;;;5028042;28;20034;-73
2022/10/19 12:48:18;;;;;;;2.95;2.53;;;;;;;;;;5019517;28;20026;-74
2022/10/19 12:50:49;;;;;;;3.22;2.58;;;;;;;;;;5012787;28;20042;-72
2022/10/19 12:53:25;;;;;;;5.70;2.42;;;;;;;;;;5028355;28;20053;-73
2022/10/19 12:56:10;;;;;;;3.60;2.35;;;;;;;;;;5024236;28;20047;-74
2022/10/19 12:58:41;;;;;;;3.70;2.85;;;;;;;;;;5025864;28;20029;-74
2022/10/19 13:01:20;;;;;;;4.32;3.58;;;;;;;;;;5025266;28;20036;-73
2022/10/19 13:03:47;;;;;;;3.05;2.20;;;;;;;;;;5020846;28;20033;-73
2022/10/19 13:06:24;;;;;;;3.45;3.15;;;;;;;;;;5040907;28;20491;-73
2022/10/19 13:08:53;;;;;;;3.08;2.28;;;;;;;;;;5024200;28;20048;-74
2022/10/19 13:11:21;;;;;;;3.22;2.40;;;;;;;;;;5014795;28;20041;-74
2022/10/19 13:13:52;;;;;;;2.60;1.85;;;;;;;;;;5029260;28;20030;-76
2022/10/19 13:16:35;;;;;;;2.70;2.05;;;;;;;;;;5019151;28;20056;-74
2022/10/19 13:19:13;;;;;;;1.95;1.75;;;;;;;;;;5008210;28;20041;-73
2022/10/19 13:22:10;;;;;;;3.03;2.47;;;;;;;;;;5026459;28;20025;-73
2022/10/19 13:24:39;;;;;;;3.60;3.20;;;;;;;;;;5019989;28;20224;-74
2022/10/19 13:27:07;;;;;;;3.10;2.80;;;;;;;;;;5019198;28;20037;-74
2022/10/19 13:29:38;;;;;;;5.95;4.57;;;;;;;;;;5020353;28;20037;-74
2022/10/19 13:32:25;;;;;;;3.47;2.33;;;;;;;;;;5021312;28;20037;-74
2022/10/19 13:34:53;;;;;;;4.45;2.88;;;;;;;;;;5024198;28;20041;-74
2022/10/19 13:37:19;;;;;;;6.53;4.15;;;;;;;;;;5023612;28;20116;-73
2022/10/19 13:39:45;;;;;;;4.10;3.05;;;;;;;;;;5006280;28;20041;-74
2022/10/19 13:42:24;;;;;;;5.20;2.85;;;;;;;;;;5022460;28;20029;-73
2022/10/19 13:44:55;;;;;;;5.85;3.88;;;;;;;;;;5022807;28;20031;-73
2022/10/19 13:47:23;;;;;;;6.25;3.35;;;;;;;;;;5009289;28;20395;-73
2022/10/19 13:50:05;;;;;;;4.13;3.72;;;;;;;;;;5022496;28;20037;-74
2022/10/19 13:52:41;;;;;;;4.68;3.75;;;;;;;;;;5021784;28;20052;-74
2022/10/19 13:55:10;;;;;;;5.05;4.13;;;;;;;;;;5018734;28;20044;-74
2022/10/19 13:57:59;;;;;;;6.05;3.97;;;;;;;;;;5028045;28;20033;-73
2022/10/19 14:00:45;;;;;;;9.00;3.88;;;;;;;;;;5011611;28;20038;-74
2022/10/19 14:03:29;;;;;;;5.10;3.33;;;;;;;;;;5024795;28;20069;-73
2022/10/19 14:05:58;;;;;;;4.85;3.42;;;;;;;;;;5018475;28;20049;-73
2022/10/19 14:08:42;;;;;;;6.32;3.55;;;;;;;;;;5025689;28;20041;-73
2022/10/19 14:11:10;;;;;;;15.23;4.72;;;;;;;;;;5026086;28;20034;-73
2022/10/19 14:13:38;;;;;;;5.72;4.30;;;;;;;;;;5028116;28;20029;-73
2022/10/19 14:16:04;;;;;;;6.30;3.65;;;;;;;;;;5017741;28;20026;-73
2022/10/19 14:18:34;;;;;;;5.78;3.45;;;;;;;;;;5022188;28;20391;-72
2022/10/19 14:21:04;;;;;;;5.32;4.00;;;;;;;;;;5025417;28;20037;-72
2022/10/19 14:23:36;;;;;;;5.00;3.38;;;;;;;;;;5022944;28;20029;-72
2022/10/19 14:26:02;;;;;;;3.60;3.03;;;;;;;;;;5020066;28;20037;-73
2022/10/19 14:28:31;;;;;;;6.35;3.17;;;;;;;;;;5027097;28;20017;-73
2022/10/19 14:31:00;;;;;;;4.38;3.50;;;;;;;;;;5008154;28;20037;-73
2022/10/19 14:33:30;;;;;;;4.65;3.65;;;;;;;;;;5026560;28;20487;-73
2022/10/19 14:35:57;;;;;;;5.53;3.53;;;;;;;;;;5025394;28;20032;-73
2022/10/19 14:38:26;;;;;;;5.10;4.50;;;;;;;;;;5020165;28;20034;-73
2022/10/19 14:40:52;;;;;;;6.35;3.83;;;;;;;;;;5025242;28;20029;-72
2022/10/19 14:43:23;;;;;;;3.78;3.35;;;;;;;;;;5022197;28;20388;-72
2022/10/19 14:46:24;;;;;;;7.03;3.78;;;;;;;;;;5027326;28;20408;-73
2022/10/19 14:48:59;;;;;;;6.30;3.72;;;;;;;;;;4998333;28;20041;-73
2022/10/19 14:51:30;;;;;;;4.57;3.75;;;;;;;;;;5025847;28;20068;-73
2022/10/19 14:54:27;;;;;;;5.65;3.97;;;;;;;;;;5026417;28;20034;-73
2022/10/19 14:56:59;;;;;;;3.83;3.20;;;;;;;;;;5021532;28;20479;-73
2022/10/19 14:59:27;;;;;;;4.07;3.70;;;;;;;;;;5018122;28;20034;-73
2022/10/19 15:01:55;;;;;;;4.00;2.67;;;;;;;;;;5029324;28;20022;-73